Mesquite, Nevada Weather observations

Data are for observation ending at time listed.
 Day   Time    Ave.   Ave.  Ave.  Vector   Max.   Stn.    Total    Solar   Ave.  
  of    of     Air    Rel.  Wind   Wind    Wind   Baro.  Precip.   Rad.    Soil  
Year   Day     Temp.  Hum.  Speed  Dir.    Gust   Pres.                    Temp. 
2019   (PST)    F      %     mph   deg.    mph     mb.     in.     W/m2     F   
------------------------------------------------------------------------------
 340   16:30   58.6    58    2.4   236      5.5   958.0    0.00       3    58.9
 340   16:40   58.1    61    2.7   242      5.2   958.1    0.00       3    58.8
 340   16:50   57.6    62    1.3   257      2.9   958.1    0.00       1    58.6
 340   17:00   57.4    63    1.3   271      2.9   958.1    0.00       1    58.5
 340   17:10   57.1    63    0.0   234      0.1   958.2    0.00       1    58.4
 340   17:20   55.4    68    3.0    52      5.0   958.2    0.00       0    58.2
 340   17:30   53.4    74    3.7    56      4.7   958.1    0.00       0    58.1
 340   17:40   53.0    75    4.2    51      5.0   957.9    0.00       0    58.0
 340   17:50   53.2    74    3.4    34      4.2   957.9    0.00       0    57.8
 340   18:00   53.2    74    2.8    35      4.0   958.0    0.00       0    57.7
 340   18:10   53.3    73    1.8    37      2.3   958.0    0.00       0    57.6
 340   18:20   53.8    71    1.1   267      2.1   958.1    0.00       0    57.4
 340   18:30   54.2    71    2.4   280      3.2   958.2    0.00       0    57.3
 340   18:40   53.9    72    3.5   271      5.3   958.4    0.00       0    57.2
 340   18:50   53.5    74    3.3   253      5.0   958.6    0.00       0    57.1
 340   19:00   53.4    74    1.7   257      3.8   958.6    0.00       0    57.0
 340   19:10   53.2    75    0.1   306      1.1   958.7    0.00       0    56.9
 340   19:20   51.8    78    2.1    69      3.3   958.6    0.00       0    56.8
 340   19:30   50.9    81    2.7    49      3.5   958.5    0.00       0    56.7
 340   19:40   50.4    82    4.9    61      6.3   958.3    0.00       0    56.6
 340   19:50   50.0    84    4.8    51      6.0   958.0    0.00       0    56.5
 340   20:00   50.4    83    2.7    25      3.5   958.0    0.00       0    56.4
 340   20:10   50.6    82    2.0    13      3.3   958.0    0.00       0    56.3
 340   20:20   51.6    79    2.3   307      3.6   958.0    0.00       0    56.2
 340   20:30   51.9    77    2.7   316      4.9   957.9    0.00       0    56.1
 340   20:40   51.9    76    3.0   304      5.9   958.1    0.00       1    56.0
 340   20:50   50.2    81    3.9   108      8.1   958.3    0.00       0    55.9
 340   21:00   49.3    84    4.5   101      6.9   958.4    0.00       0    55.8
 340   21:10   49.3    85    3.0    98      4.1   958.4    0.00       0    55.8
 340   21:20   49.4    84    1.6    92      2.5   958.6    0.00       0    55.7
 340   21:30   49.4    83    1.5   100      2.8   958.6    0.00       0    55.6
 340   21:40   49.4    83    0.6    56      1.5   958.6    0.00       0    55.5
 340   21:50   49.2    83    3.2    60      4.8   958.4    0.00       0    55.5
 340   22:00   49.0    84    3.6    41      5.6   958.3    0.00       0    55.4
 340   22:10   49.7    82    2.0   288      3.5   958.3    0.00       0    55.3
 340   22:20   50.0    81    0.4   257      1.8   958.3    0.00       0    55.3
 340   22:30   49.5    82    0.5   101      1.3   958.3    0.00       0    55.2
 340   22:40   49.2    83    0.0    46      1.3   958.3    0.00       0    55.1
 340   22:50   49.5    82    0.0    51      0.1   958.2    0.00       0    55.0
 340   23:00   49.4    81    0.2   117      2.7   958.2    0.00       0    55.0
 340   23:10   48.5    82    3.2   117      6.0   958.2    0.00       0    54.9
 340   23:20   47.5    86    3.5   118      5.7   958.2    0.00       0    54.8
 340   23:30   47.4    86    1.7   124      3.9   958.2    0.00       0    54.7
 340   23:40   47.2    86    0.0     0      0.0   958.0    0.00       0    54.6
 340   23:50   47.4    86    0.0     0      0.0   958.0    0.00       0    54.5
 341    0:00   47.8    86    0.0     0      0.0   958.0    0.00       0    54.5
 341    0:10   48.3    84    0.0     0      0.0   958.0    0.00       0    54.4
 341    0:20   48.8    82    0.0     0      0.0   957.9    0.00       0    54.3
 341    0:30   49.3    80    0.0     0      0.0   957.8    0.00       0    54.3
 341    0:40   48.3    83    0.0     0      0.0   957.8    0.00       0    54.2
 341    0:50   47.8    85    0.0     0      0.0   957.8    0.00       0    54.2
 341    1:00   47.7    86    0.0   277      0.4   957.8    0.00       0    54.2
 341    1:10   48.2    85    0.4   298      2.6   957.7    0.00       0    54.1
 341    1:20   48.5    84    0.0   302      1.1   957.7    0.00       0    54.1
 341    1:30   48.8    82    0.0     0      0.0   957.7    0.00       0    54.0
 341    1:40   49.3    80    0.0     0      0.0   957.7    0.00       0    54.0
 341    1:50   48.5    82    0.1    85      1.3   957.5    0.00       0    53.9
 341    2:00   47.4    86    0.0     0      0.0   957.4    0.00       1    53.9
 341    2:10   47.4    86    0.0     0      0.0   957.4    0.00       1    53.9
 341    2:20   47.6    85    0.0   135      0.8   957.4    0.00       0    53.8
 341    2:30   47.9    83    0.0     0      0.0   957.3    0.00       0    53.8
 341    2:40   47.8    82    0.0     0      0.0   957.3    0.00       0    53.7
 341    2:50   47.4    83    0.0     0      0.0   957.2    0.00       1    53.7
 341    3:00   47.4    84    0.0    85      0.1   957.1    0.00       1    53.6
 341    3:10   46.8    85    0.0     0      0.0   957.1    0.00       0    53.6
 341    3:20   46.9    86    0.0     0      0.0   957.1    0.00       0    53.5
 341    3:30   47.2    86    0.0     0      0.0   957.0    0.00       0    53.5
 341    3:40   47.6    86    0.0     0      0.0   957.0    0.00       0    53.4
 341    3:50   47.9    85    0.0     0      0.0   957.0    0.00       0    53.4
 341    4:00   48.0    84    0.0     0      0.0   957.0    0.00       0    53.3
 341    4:10   48.2    83    0.0     0      0.0   956.9    0.00       0    53.3
 341    4:20   48.4    83    0.0     0      0.0   956.9    0.00       0    53.3
 341    4:30   48.6    82    0.0     0      0.0   956.8    0.00       0    53.3
 341    4:40   48.7    82    0.0     0      0.0   956.8    0.00       0    53.2
 341    4:50   49.0    81    0.0    14      0.5   956.9    0.00       0    53.2
 341    5:00   49.1    81    0.0     0      0.0   956.9    0.00       0    53.3
 341    5:10   48.7    82    0.0   152      0.5   957.1    0.00       0    53.2
 341    5:20   48.0    85    0.0   101      0.6   957.2    0.00       0    53.2
 341    5:30   47.8    85    0.1   111      1.8   957.3    0.00       0    53.2
 341    5:40   47.9    85    0.1   130      2.3   957.3    0.00       0    53.2
 341    5:50   48.1    84    0.0     0      0.0   957.3    0.00       0    53.2
 341    6:00   48.1    84    0.0     0      0.0   957.1    0.00       0    53.2
 341    6:10   48.2    84    1.2    40      3.9   956.9    0.00       0    53.2
 341    6:20   48.4    84    3.6    19      6.4   956.7    0.00       0    53.2
 341    6:30   48.7    82    1.2    10      5.3   956.7    0.00       0    53.1
 341    6:40   49.3    78    1.4   305      3.7   956.8    0.00       2    53.1
 341    6:50   48.9    80    4.5   265      6.9   957.1    0.00       6    53.1
 341    7:00   48.4    84    2.0   258      6.9   957.3    0.00       9    53.0
 341    7:10   47.9    84    3.1   194      6.0   957.5    0.00      11    53.0
 341    7:20   48.0    86    0.5   187      5.2   957.6    0.00      37    52.9
 341    7:30   49.8    84    0.2   135      3.0   957.7    0.00      89    52.9
 341    7:40   50.6    82    1.8    59      4.7   957.7    0.00     139    52.9
 341    7:50   51.0    81    2.7    56      5.3   957.5    0.00     151    52.8
 341    8:00   52.1    78    1.3    77      4.2   957.5    0.00     152    52.8
 341    8:10   52.7    75    0.0   107      0.5   957.6    0.00      98    52.9
 341    8:20   54.4    71    1.0   268      3.2   957.7    0.00     165    53.0
 341    8:30   53.5    72    3.1   288      5.2   957.8    0.00     164    53.0
 341    8:40   53.0    72    3.0   324      4.3   957.7    0.00     125    53.1
 341    8:50   53.8    70    2.5   318      4.0   957.8    0.00     177    53.1
 341    9:00   54.4    67    2.1   309      3.0   957.9    0.00     196    53.2
 341    9:10   55.9    63    0.6   310      1.9   957.8    0.00     229    53.2
 341    9:20   56.2    62    1.1   250      2.0   957.9    0.00     184    53.3
 341    9:30   55.4    63    2.4   260      3.4   958.0    0.00     145    53.3
 341    9:40   55.7    64    1.5   262      3.4   958.0    0.00     216    53.4
 341    9:50   56.4    61    2.2   265      4.0   957.9    0.00     311    53.5
 341   10:00   57.2    59    2.2   277      4.2   957.8    0.00     356    53.6
 341   10:10   58.6    56    0.0   285      1.3   957.7    0.00     372    53.8
 341   10:20   61.4    51    0.2   198      1.0   957.7    0.00     363    54.0
 341   10:30   61.1    52    0.8   286      2.0   957.4    0.00     338    54.2
 341   10:40   60.9    53    1.0   181      2.9   957.2    0.00     313    54.5
 341   10:50   61.2    52    1.8   170      3.7   957.1    0.00     275    54.9
 341   11:00   60.3    54    2.2   205      3.6   957.0    0.00     262    55.2
 341   11:10   60.5    55    1.5   146      4.3   956.8    0.00     202    55.5
 341   11:20   60.2    54    1.0   182      2.9   956.5    0.00     188    55.7
 341   11:30   59.8    55    0.1   189      1.6   956.4    0.00     154    56.0
 341   11:40   60.1    54    0.0   138      0.4   956.1    0.00     168    56.2
 341   11:50   60.7    53    0.0   187      0.1   956.1    0.00     201    56.3
 341   12:00   60.9    52    0.5   224      4.8   956.0    0.00     195    56.5
 341   12:10   60.0    53    0.5   248      3.1   955.6    0.00     190    56.6
 341   12:20   60.0    54    0.0   312      0.6   955.4    0.00     130    56.7
 341   12:30   60.8    52    0.0     0      0.0   955.2    0.00     173    56.8
 341   12:40   61.0    51    0.4    80      2.0   955.0    0.00     189    56.9
 341   12:50   61.4    50    0.0    71      0.1   954.9    0.00     175    57.0
 341   13:00   61.4    50    0.0     0      0.0   954.7    0.00     193    57.1
 341   13:10   62.1    48    0.1    44      2.0   954.5    0.00     185    57.2
 341   13:20   61.6    50    0.5   101      2.9   954.4    0.00     145    57.3
 341   13:30   61.6    50    0.2   142      2.6   954.5    0.00     106    57.4
 341   13:40   61.8    50    0.0   187      1.0   954.4    0.00     141    57.5
 341   13:50   61.6    50    0.0   195      1.8   954.3    0.00     122    57.5
 341   14:00   61.6    52    0.0   240      2.3   954.3    0.00     120    57.6
 341   14:10   61.4    52    0.2   251      3.4   954.4    0.00     144    57.6
 341   14:20   61.2    52    0.3   262      2.6   954.4    0.00      92    57.7
 341   14:30   61.1    53    0.0     0      0.0   954.2    0.00     104    57.7
 341   14:40   61.5    52    0.0     0      0.0   954.2    0.00      99    57.8
 341   14:50   61.3    52    0.0   205      0.1   954.3    0.00      61    57.8
 341   15:00   61.0    53    0.0     0      0.0   954.1    0.00      45    57.8
 341   15:10   60.8    53    0.0     0      0.0   954.0    0.00      47    57.8
 341   15:20   61.1    53    0.0     0      0.0   953.9    0.00      45    57.8
 341   15:30   60.8    54    0.0     0      0.0   954.0    0.00      36    57.8
 341   15:40   60.6    56    0.0     0      0.0   954.0    0.00      27    57.8
 341   15:50   60.2    57    0.2   171      2.9   954.0    0.00      13    57.8
 341   16:00   59.8    59    0.0     0      0.0   953.9    0.00       8    57.8
 341   16:10   59.6    59    0.0     0      0.0   953.8    0.00       4    57.7
 341   16:20   59.2    60    0.0     0      0.0   953.8    0.00       3    57.6

Return to Mesquite, Nevada graphs page.


Western Regional Climate Center,wrcc@dri.edu